Time;durP1;ratioP1;P1;durP2;ratioP2;P2;SDS_P1;SDS_P2;PMS_P1;PMS_P2;Temp;Humidity;BMP_temperature;BMP_pressure;BME280_temperature;BME280_humidity;BME280_pressure;Samples;Min_cycle;Max_cycle;Signal;HPM_P1;HPM_P2
2023/12/18 00:01:26;;;;;;;0.40;0.40;;;3.80;99.90;;;;;;5073117;28;20162;-58
2023/12/18 00:03:52;;;;;;;0.70;0.70;;;3.80;99.90;;;;;;5073521;28;20169;-58
2023/12/18 00:06:18;;;;;;;0.50;0.50;;;3.80;99.90;;;;;;5072726;28;20235;-58
2023/12/18 00:08:43;;;;;;;0.40;0.40;;;3.80;99.80;;;;;;5073759;28;20174;-57
2023/12/18 00:11:09;;;;;;;0.50;0.50;;;3.90;99.70;;;;;;5072927;28;20166;-58
2023/12/18 00:13:34;;;;;;;0.90;0.40;;;3.90;99.70;;;;;;5073337;28;20173;-58
2023/12/18 00:16:01;;;;;;;0.30;0.30;;;3.90;99.60;;;;;;5073138;28;20257;-58
2023/12/18 00:18:27;;;;;;;0.30;0.30;;;3.80;99.60;;;;;;5073087;28;20197;-58
2023/12/18 00:20:52;;;;;;;0.40;0.40;;;3.80;99.70;;;;;;5072625;28;20299;-58
2023/12/18 00:23:18;;;;;;;0.30;0.30;;;3.80;99.70;;;;;;5073172;28;20181;-58
2023/12/18 00:25:44;;;;;;;0.40;0.40;;;3.80;99.70;;;;;;5072743;28;20188;-58
2023/12/18 00:28:09;;;;;;;0.50;0.50;;;3.70;99.70;;;;;;5072899;28;20531;-57
2023/12/18 00:30:35;;;;;;;0.40;0.40;;;3.70;99.80;;;;;;5072628;28;20436;-58
2023/12/18 00:33:01;;;;;;;0.30;0.30;;;3.70;99.90;;;;;;5073131;28;20551;-58
2023/12/18 00:35:28;;;;;;;0.35;0.35;;;3.70;99.90;;;;;;5072957;28;20261;-58
2023/12/18 00:37:56;;;;;;;0.30;0.30;;;3.70;99.90;;;;;;5072563;28;20201;-57
2023/12/18 00:40:22;;;;;;;0.40;0.40;;;3.80;99.90;;;;;;5071106;28;20802;-56
2023/12/18 00:42:48;;;;;;;0.40;0.40;;;3.90;99.90;;;;;;5072332;28;20173;-57
2023/12/18 00:45:17;;;;;;;0.32;0.32;;;3.90;99.90;;;;;;5071742;28;20709;-58
2023/12/18 00:47:42;;;;;;;0.30;0.30;;;3.90;99.90;;;;;;5073003;28;20227;-58
2023/12/18 00:50:09;;;;;;;0.40;0.40;;;3.90;99.80;;;;;;5072410;28;20197;-58
2023/12/18 00:52:38;;;;;;;0.30;0.30;;;3.80;99.70;;;;;;5072504;28;20410;-58
2023/12/18 00:55:06;;;;;;;0.40;0.40;;;3.70;99.70;;;;;;5071435;28;20177;-56
2023/12/18 00:57:33;;;;;;;0.30;0.30;;;3.70;99.90;;;;;;5070818;28;20573;-59
2023/12/18 01:00:02;;;;;;;0.30;0.30;;;3.70;99.90;;;;;;5070659;28;20644;-59
2023/12/18 01:02:28;;;;;;;0.40;0.40;;;3.70;99.90;;;;;;5069756;28;20174;-60
2023/12/18 01:04:53;;;;;;;0.50;0.50;;;3.60;99.90;;;;;;5072549;28;20235;-60
2023/12/18 01:07:20;;;;;;;0.40;0.40;;;3.60;99.90;;;;;;5072291;28;20197;-60
2023/12/18 01:09:45;;;;;;;0.40;0.40;;;3.60;99.90;;;;;;5071278;28;20206;-59
2023/12/18 01:12:14;;;;;;;0.30;0.30;;;3.70;99.90;;;;;;5070902;28;20643;-58
2023/12/18 01:14:41;;;;;;;0.30;0.30;;;3.60;99.90;;;;;;5072013;28;20175;-59
2023/12/18 01:17:07;;;;;;;0.30;0.30;;;3.60;99.90;;;;;;5071911;28;20165;-59
2023/12/18 01:19:33;;;;;;;0.40;0.40;;;3.60;99.90;;;;;;5071145;28;20192;-60
2023/12/18 01:21:58;;;;;;;0.40;0.40;;;3.60;99.90;;;;;;5070248;28;20661;-58
2023/12/18 01:24:24;;;;;;;0.40;0.40;;;3.60;99.80;;;;;;5071846;28;20174;-59
2023/12/18 01:26:50;;;;;;;0.40;0.40;;;3.50;99.80;;;;;;5072536;28;20178;-60
2023/12/18 01:29:15;;;;;;;0.40;0.40;;;3.60;99.80;;;;;;5072432;28;20185;-60
2023/12/18 01:31:41;;;;;;;0.30;0.30;;;3.60;99.70;;;;;;5072694;28;20432;-60
2023/12/18 01:34:07;;;;;;;0.40;0.40;;;3.60;99.70;;;;;;5072072;28;20528;-59
2023/12/18 01:36:33;;;;;;;0.30;0.30;;;3.50;99.60;;;;;;5072044;28;20184;-57
2023/12/18 01:39:00;;;;;;;0.38;0.38;;;3.50;99.60;;;;;;5071985;28;20243;-59
2023/12/18 01:41:27;;;;;;;0.38;0.38;;;3.50;99.60;;;;;;5071217;28;20196;-60
2023/12/18 01:43:53;;;;;;;0.40;0.40;;;3.40;99.70;;;;;;5070594;28;20181;-60
2023/12/18 01:46:24;;;;;;;0.70;0.40;;;3.40;99.80;;;;;;5072089;28;20614;-59
2023/12/18 01:48:50;;;;;;;0.38;0.38;;;3.40;99.80;;;;;;5072142;28;20181;-58
2023/12/18 01:51:18;;;;;;;0.40;0.40;;;3.40;99.80;;;;;;5068934;28;20186;-58
2023/12/18 01:53:49;;;;;;;0.30;0.30;;;3.40;99.70;;;;;;5070726;28;20162;-58
2023/12/18 01:56:17;;;;;;;0.30;0.30;;;3.30;99.80;;;;;;5070528;28;20192;-58
2023/12/18 01:58:44;;;;;;;0.40;0.40;;;3.30;99.70;;;;;;5071382;28;20325;-58
2023/12/18 02:01:11;;;;;;;0.30;0.30;;;3.30;99.70;;;;;;5071741;28;20553;-58
2023/12/18 02:03:38;;;;;;;1.35;1.25;;;3.40;99.80;;;;;;5071751;28;20169;-58
2023/12/18 02:06:05;;;;;;;0.30;0.30;;;3.40;99.70;;;;;;5071785;28;20651;-58
2023/12/18 02:08:34;;;;;;;0.40;0.40;;;3.40;99.50;;;;;;5072603;28;20534;-58
2023/12/18 02:11:00;;;;;;;0.30;0.30;;;3.40;99.40;;;;;;5071513;28;20197;-58
2023/12/18 02:13:26;;;;;;;0.30;0.30;;;3.50;99.40;;;;;;5071752;28;20181;-58
2023/12/18 02:15:51;;;;;;;0.30;0.30;;;3.40;99.40;;;;;;5071731;28;20181;-58
2023/12/18 02:18:17;;;;;;;0.40;0.40;;;3.40;99.50;;;;;;5071719;28;20447;-58
2023/12/18 02:20:44;;;;;;;0.30;0.30;;;3.40;99.60;;;;;;5071792;28;20280;-57
2023/12/18 02:23:10;;;;;;;0.57;0.57;;;3.40;99.60;;;;;;5071670;28;20228;-58
2023/12/18 02:25:36;;;;;;;0.30;0.30;;;3.30;99.60;;;;;;5071688;28;20542;-58
2023/12/18 02:28:03;;;;;;;0.30;0.30;;;3.30;99.70;;;;;;5071676;28;20233;-58
2023/12/18 02:30:31;;;;;;;0.30;0.30;;;3.40;99.50;;;;;;5073606;28;20193;-58
2023/12/18 02:32:57;;;;;;;0.68;0.60;;;3.30;99.10;;;;;;5075197;28;20173;-58
2023/12/18 02:35:23;;;;;;;0.40;0.40;;;3.40;98.90;;;;;;5075403;28;20572;-56
2023/12/18 02:37:48;;;;;;;0.40;0.40;;;3.30;98.90;;;;;;5075341;28;20189;-58
2023/12/18 02:40:14;;;;;;;0.30;0.30;;;3.30;99.00;;;;;;5074800;28;20259;-57
2023/12/18 02:42:39;;;;;;;0.30;0.30;;;3.30;99.00;;;;;;5074768;28;20211;-58
2023/12/18 02:45:05;;;;;;;0.40;0.40;;;3.30;99.10;;;;;;5075372;28;20166;-57
2023/12/18 02:47:31;;;;;;;0.30;0.30;;;3.30;99.10;;;;;;5074977;28;20542;-58
2023/12/18 02:49:57;;;;;;;0.40;0.40;;;3.30;99.00;;;;;;5074783;28;20219;-58
2023/12/18 02:52:22;;;;;;;0.30;0.30;;;3.40;99.00;;;;;;5074519;28;20180;-58
2023/12/18 02:54:48;;;;;;;0.37;0.37;;;3.40;98.80;;;;;;5075004;28;20215;-58
2023/12/18 02:57:13;;;;;;;0.40;0.40;;;3.30;98.20;;;;;;5074953;28;20236;-58
2023/12/18 02:59:39;;;;;;;0.30;0.30;;;3.20;98.10;;;;;;5074754;28;20554;-58
2023/12/18 03:02:05;;;;;;;0.40;0.40;;;3.30;98.30;;;;;;5074451;28;20162;-57
2023/12/18 03:04:30;;;;;;;0.30;0.30;;;3.30;98.20;;;;;;5074542;28;20176;-58
2023/12/18 03:06:56;;;;;;;0.30;0.30;;;3.40;98.10;;;;;;5074913;28;20195;-58
2023/12/18 03:09:21;;;;;;;0.30;0.30;;;3.40;98.00;;;;;;5075111;28;20186;-58
2023/12/18 03:11:48;;;;;;;0.40;0.40;;;3.30;97.90;;;;;;5074294;28;20628;-58
2023/12/18 03:14:13;;;;;;;0.32;0.32;;;3.30;97.90;;;;;;5074652;28;20252;-58
2023/12/18 03:16:39;;;;;;;0.40;0.40;;;3.30;97.90;;;;;;5074440;28;20212;-58
2023/12/18 03:19:05;;;;;;;0.50;0.50;;;3.30;97.80;;;;;;5074235;28;20208;-58
2023/12/18 03:21:31;;;;;;;0.30;0.30;;;3.20;97.70;;;;;;5074237;28;20176;-58
2023/12/18 03:23:56;;;;;;;0.30;0.30;;;3.20;97.60;;;;;;5074334;28;20545;-58
2023/12/18 03:26:22;;;;;;;0.30;0.30;;;3.20;97.70;;;;;;5074348;28;20168;-58
2023/12/18 03:28:48;;;;;;;0.40;0.40;;;3.30;97.60;;;;;;5074270;28;20197;-58
2023/12/18 03:31:14;;;;;;;0.30;0.30;;;3.30;97.50;;;;;;5073827;28;20189;-58
2023/12/18 03:33:40;;;;;;;0.33;0.33;;;3.20;97.40;;;;;;5074249;28;20188;-58
2023/12/18 03:36:07;;;;;;;0.30;0.30;;;3.30;97.30;;;;;;5072810;28;20423;-58
2023/12/18 03:38:32;;;;;;;0.30;0.30;;;3.20;96.90;;;;;;5074241;28;20209;-58
2023/12/18 03:40:59;;;;;;;0.40;0.40;;;3.30;96.60;;;;;;5061082;22;20770;-55
2023/12/18 03:43:24;;;;;;;0.30;0.30;;;3.30;96.40;;;;;;5033255;28;20176;-55
2023/12/18 03:45:50;;;;;;;0.30;0.30;;;3.30;95.90;;;;;;5033726;28;20265;-56
2023/12/18 03:48:16;;;;;;;0.30;0.30;;;3.20;96.00;;;;;;5033344;28;20502;-55
2023/12/18 03:50:42;;;;;;;0.30;0.30;;;3.10;95.90;;;;;;5047123;28;20206;-56
2023/12/18 03:53:08;;;;;;;5.10;0.70;;;3.10;96.00;;;;;;5053269;28;20457;-55
2023/12/18 03:55:34;;;;;;;0.33;0.33;;;3.10;95.90;;;;;;5053202;28;20558;-56
2023/12/18 03:58:00;;;;;;;0.30;0.30;;;3.20;95.70;;;;;;5053100;28;20991;-55
2023/12/18 04:00:26;;;;;;;0.40;0.40;;;3.10;95.50;;;;;;5053320;28;20267;-55
2023/12/18 04:02:52;;;;;;;0.30;0.30;;;3.20;95.50;;;;;;5052992;28;20231;-55
2023/12/18 04:05:18;;;;;;;0.40;0.40;;;3.20;95.30;;;;;;5053135;28;20653;-55
2023/12/18 04:07:44;;;;;;;0.40;0.40;;;3.20;95.10;;;;;;5052982;28;20303;-56
2023/12/18 04:10:10;;;;;;;0.40;0.40;;;3.20;95.00;;;;;;5052930;28;20446;-55
2023/12/18 04:12:36;;;;;;;0.40;0.40;;;3.10;95.10;;;;;;5052701;28;20174;-56
2023/12/18 04:15:02;;;;;;;2.58;0.43;;;3.10;95.20;;;;;;5052773;28;20413;-55
2023/12/18 04:17:27;;;;;;;0.30;0.30;;;3.20;95.00;;;;;;5052638;28;20205;-56
2023/12/18 04:19:53;;;;;;;0.40;0.40;;;3.10;95.10;;;;;;5052509;28;20256;-55
2023/12/18 04:22:18;;;;;;;0.63;0.50;;;3.10;95.30;;;;;;5052428;28;20162;-56
2023/12/18 04:24:44;;;;;;;0.30;0.30;;;3.10;95.40;;;;;;5052641;28;20702;-56
2023/12/18 04:27:10;;;;;;;0.30;0.30;;;3.20;95.30;;;;;;5052470;28;20220;-56
2023/12/18 04:29:37;;;;;;;0.30;0.30;;;3.20;95.10;;;;;;5052495;28;20190;-55
2023/12/18 04:32:04;;;;;;;0.40;0.40;;;3.10;95.00;;;;;;5052229;28;20232;-55
2023/12/18 04:34:29;;;;;;;0.30;0.30;;;3.10;94.70;;;;;;5052414;28;20174;-56
2023/12/18 04:36:55;;;;;;;0.30;0.30;;;3.20;94.20;;;;;;5052356;28;20551;-56
2023/12/18 04:39:21;;;;;;;0.40;0.40;;;3.20;94.10;;;;;;5052095;28;20206;-56
2023/12/18 04:41:46;;;;;;;0.70;0.50;;;3.20;93.90;;;;;;5052016;28;20194;-56
2023/12/18 04:44:12;;;;;;;0.37;0.37;;;3.10;93.70;;;;;;5052448;28;20172;-56
2023/12/18 04:46:38;;;;;;;0.40;0.40;;;3.10;93.90;;;;;;5052198;28;20170;-55
2023/12/18 04:49:05;;;;;;;0.40;0.40;;;3.10;94.00;;;;;;5052110;28;20174;-55
2023/12/18 04:51:30;;;;;;;0.40;0.40;;;3.10;93.80;;;;;;5051744;28;20190;-56
2023/12/18 04:53:56;;;;;;;0.30;0.30;;;3.10;93.70;;;;;;5052020;28;20177;-55
2023/12/18 04:56:22;;;;;;;0.40;0.40;;;3.10;93.50;;;;;;5051966;28;20412;-56
2023/12/18 04:58:48;;;;;;;0.30;0.30;;;3.00;93.20;;;;;;5052006;28;20462;-56
2023/12/18 05:01:14;;;;;;;0.40;0.40;;;3.10;93.20;;;;;;5051528;28;20425;-56
2023/12/18 05:03:39;;;;;;;0.40;0.40;;;3.00;93.10;;;;;;5051990;28;20174;-56
2023/12/18 05:06:21;;;;;;;0.30;0.30;;;3.10;92.70;;;;;;5052048;28;20405;-55
2023/12/18 05:08:49;;;;;;;0.40;0.40;;;3.10;92.80;;;;;;5051872;28;20162;-56
2023/12/18 05:11:20;;;;;;;0.30;0.30;;;3.10;92.90;;;;;;5051429;28;20198;-55
2023/12/18 05:13:46;;;;;;;0.68;0.68;;;3.10;93.10;;;;;;5066053;28;20182;-55
2023/12/18 05:16:14;;;;;;;0.40;0.40;;;3.10;93.10;;;;;;5071787;28;20662;-56
2023/12/18 05:18:40;;;;;;;0.40;0.40;;;3.10;93.00;;;;;;5071814;28;20212;-56
2023/12/18 05:21:06;;;;;;;0.33;0.33;;;3.10;92.80;;;;;;5071355;28;20190;-56
2023/12/18 05:23:32;;;;;;;0.50;0.50;;;3.10;92.80;;;;;;5072063;28;20407;-56
2023/12/18 05:25:57;;;;;;;0.40;0.40;;;3.10;93.00;;;;;;5071823;28;20222;-56
2023/12/18 05:28:23;;;;;;;0.30;0.30;;;3.10;93.00;;;;;;5071765;28;20443;-55
2023/12/18 05:30:49;;;;;;;0.40;0.40;;;3.10;92.90;;;;;;5071334;28;20215;-56
2023/12/18 05:33:14;;;;;;;0.30;0.30;;;3.10;92.60;;;;;;5071653;28;20653;-56
2023/12/18 05:35:40;;;;;;;0.40;0.40;;;3.10;92.30;;;;;;5071669;28;20173;-56
2023/12/18 05:38:08;;;;;;;0.30;0.30;;;3.20;91.20;;;;;;5071483;28;20197;-55
2023/12/18 05:40:35;;;;;;;0.40;0.40;;;3.20;91.20;;;;;;5071115;28;20689;-55
2023/12/18 05:43:01;;;;;;;0.30;0.30;;;3.20;90.70;;;;;;5071630;28;20184;-56
2023/12/18 05:45:27;;;;;;;0.30;0.30;;;3.20;90.50;;;;;;5071614;28;20169;-55
2023/12/18 05:47:52;;;;;;;0.30;0.30;;;3.20;91.10;;;;;;5071593;28;20227;-55
2023/12/18 05:50:18;;;;;;;0.30;0.30;;;3.20;91.50;;;;;;5071277;28;20197;-56
2023/12/18 05:52:44;;;;;;;0.40;0.40;;;3.10;92.00;;;;;;5071217;28;20261;-56
2023/12/18 05:55:10;;;;;;;0.30;0.30;;;3.10;92.30;;;;;;5071561;28;20166;-55
2023/12/18 05:57:39;;;;;;;0.40;0.40;;;3.10;92.30;;;;;;5071399;28;20201;-55
2023/12/18 06:00:06;;;;;;;0.30;0.30;;;3.10;92.20;;;;;;5071397;28;20284;-54
2023/12/18 06:02:32;;;;;;;0.40;0.40;;;3.10;92.30;;;;;;5071251;28;20174;-55
2023/12/18 06:04:58;;;;;;;0.33;0.33;;;3.10;92.30;;;;;;5072756;28;20204;-55
2023/12/18 06:07:23;;;;;;;0.50;0.40;;;3.10;92.20;;;;;;5075215;28;20402;-55
2023/12/18 06:09:52;;;;;;;1.17;1.17;;;3.10;91.70;;;;;;5075088;28;20188;-55
2023/12/18 06:12:17;;;;;;;0.65;0.65;;;3.10;91.70;;;;;;5074877;28;20253;-55
2023/12/18 06:14:43;;;;;;;1.00;0.93;;;3.10;91.70;;;;;;5075022;28;20260;-55
2023/12/18 06:17:09;;;;;;;0.53;0.53;;;3.00;91.80;;;;;;5075017;28;20216;-55
2023/12/18 06:19:35;;;;;;;0.35;0.35;;;3.00;91.60;;;;;;5074846;28;20189;-55
2023/12/18 06:22:01;;;;;;;0.30;0.30;;;3.10;91.80;;;;;;5074614;28;20264;-55
2023/12/18 06:24:27;;;;;;;0.30;0.30;;;3.00;91.60;;;;;;5074858;28;20172;-56
2023/12/18 06:26:53;;;;;;;0.40;0.40;;;3.00;91.40;;;;;;5074908;28;20195;-55
2023/12/18 06:29:28;;;;;;;0.70;0.70;;;3.00;91.20;;;;;;5074678;28;20184;-55
2023/12/18 06:31:53;;;;;;;0.40;0.40;;;2.90;91.50;;;;;;5074542;28;20891;-55
2023/12/18 06:34:19;;;;;;;0.30;0.30;;;2.90;91.60;;;;;;5074662;28;20299;-55
2023/12/18 06:36:45;;;;;;;0.47;0.47;;;3.00;91.40;;;;;;5075174;28;20517;-51
2023/12/18 06:39:11;;;;;;;0.40;0.40;;;3.00;90.80;;;;;;5074546;28;20197;-51
2023/12/18 06:41:37;;;;;;;0.40;0.40;;;3.00;90.50;;;;;;5074403;28;20196;-53
2023/12/18 06:44:03;;;;;;;0.60;0.53;;;3.00;90.80;;;;;;5074564;28;20780;-48
2023/12/18 06:46:28;;;;;;;0.40;0.40;;;3.00;91.00;;;;;;5074672;28;20248;-53
2023/12/18 06:48:55;;;;;;;0.40;0.40;;;3.00;90.80;;;;;;5074374;28;20687;-52
2023/12/18 06:51:21;;;;;;;0.40;0.40;;;3.00;90.60;;;;;;5074083;28;20246;-51
2023/12/18 06:53:47;;;;;;;0.40;0.40;;;3.00;90.80;;;;;;5074403;28;20181;-55
2023/12/18 06:56:13;;;;;;;0.40;0.40;;;3.00;90.80;;;;;;5074407;28;20239;-53
2023/12/18 06:58:39;;;;;;;0.77;0.77;;;3.00;90.70;;;;;;5074324;28;20200;-52
2023/12/18 07:01:05;;;;;;;0.40;0.40;;;3.00;90.80;;;;;;5073971;28;20965;-51
2023/12/18 07:03:31;;;;;;;0.50;0.50;;;3.00;91.10;;;;;;5074230;28;20412;-53
2023/12/18 07:05:56;;;;;;;0.73;0.73;;;3.10;91.20;;;;;;5074100;28;20612;-50
2023/12/18 07:08:22;;;;;;;0.40;0.40;;;3.10;90.90;;;;;;5074079;28;20257;-52
2023/12/18 07:10:49;;;;;;;0.40;0.40;;;3.10;90.70;;;;;;5073864;28;20208;-52
2023/12/18 07:13:15;;;;;;;0.40;0.40;;;3.10;90.60;;;;;;5074275;28;20541;-55
2023/12/18 07:15:41;;;;;;;0.30;0.30;;;3.10;90.50;;;;;;5073405;28;20200;-56
2023/12/18 07:18:09;;;;;;;0.40;0.40;;;3.10;90.40;;;;;;5073215;28;20471;-56
2023/12/18 07:20:35;;;;;;;2.30;0.50;;;3.10;90.50;;;;;;5073638;28;20428;-55
2023/12/18 07:23:01;;;;;;;1.70;0.50;;;3.10;90.70;;;;;;5074373;28;20221;-55
2023/12/18 07:25:26;;;;;;;0.50;0.50;;;3.20;90.80;;;;;;5073847;28;20561;-56
2023/12/18 07:27:52;;;;;;;0.40;0.40;;;3.20;90.80;;;;;;5073908;28;20775;-56
2023/12/18 07:30:20;;;;;;;0.40;0.40;;;3.20;90.80;;;;;;5073542;28;20204;-51
2023/12/18 07:32:45;;;;;;;1.48;0.60;;;3.20;90.60;;;;;;5073472;28;20485;-55
2023/12/18 07:35:11;;;;;;;0.40;0.40;;;3.30;89.70;;;;;;5073701;28;20177;-55
2023/12/18 07:37:37;;;;;;;1.60;0.90;;;3.30;89.10;;;;;;5073622;28;20197;-56
2023/12/18 07:40:03;;;;;;;0.47;0.47;;;3.30;88.70;;;;;;5073473;28;20351;-55
2023/12/18 07:42:29;;;;;;;0.40;0.40;;;3.30;88.60;;;;;;5073352;28;20821;-56
2023/12/18 07:44:54;;;;;;;0.60;0.60;;;3.20;88.80;;;;;;5073401;28;20169;-55
2023/12/18 07:47:20;;;;;;;0.40;0.40;;;3.30;89.20;;;;;;5073438;28;20638;-56
2023/12/18 07:49:48;;;;;;;0.43;0.43;;;3.30;89.80;;;;;;5073228;28;20193;-55
2023/12/18 07:52:14;;;;;;;0.50;0.50;;;3.40;90.00;;;;;;5073028;28;20174;-56
2023/12/18 07:54:39;;;;;;;1.48;0.93;;;3.40;89.70;;;;;;5073198;28;20177;-56
2023/12/18 07:57:05;;;;;;;0.87;0.87;;;3.40;89.50;;;;;;5073278;28;20549;-56
2023/12/18 07:59:31;;;;;;;0.60;0.60;;;3.50;89.30;;;;;;5072808;28;21030;-55
2023/12/18 08:01:56;;;;;;;0.77;0.77;;;3.40;89.10;;;;;;5072327;28;20178;-56
2023/12/18 08:04:22;;;;;;;1.03;1.00;;;3.50;89.20;;;;;;5073039;28;20222;-56
2023/12/18 08:06:51;;;;;;;0.50;0.50;;;3.60;88.60;;;;;;5072997;28;20173;-56
2023/12/18 08:09:16;;;;;;;0.70;0.70;;;3.60;87.50;;;;;;5072955;28;20174;-56
2023/12/18 08:11:42;;;;;;;0.50;0.50;;;3.70;87.80;;;;;;5072684;28;20651;-56
2023/12/18 08:14:09;;;;;;;1.00;1.00;;;3.90;88.80;;;;;;5072820;28;20177;-56
2023/12/18 08:16:34;;;;;;;0.50;0.50;;;4.60;90.40;;;;;;5072704;28;20265;-56
2023/12/18 08:19:00;;;;;;;0.93;0.80;;;5.80;90.50;;;;;;5067419;28;20297;-59
2023/12/18 08:21:29;;;;;;;1.38;0.80;;;6.90;88.60;;;;;;5047983;28;20674;-60
2023/12/18 08:23:55;;;;;;;0.50;0.50;;;7.90;85.20;;;;;;5052701;28;20651;-59
2023/12/18 08:26:22;;;;;;;0.90;0.57;;;8.90;81.80;;;;;;5052788;28;20557;-59
2023/12/18 08:28:48;;;;;;;1.13;1.07;;;9.60;78.50;;;;;;5038903;28;20666;-59
2023/12/18 08:31:14;;;;;;;1.63;0.50;;;10.00;74.50;;;;;;5032273;28;20433;-59
2023/12/18 08:33:40;;;;;;;1.00;0.80;;;10.60;73.50;;;;;;5032479;28;20973;-60
2023/12/18 08:36:06;;;;;;;1.23;0.80;;;10.80;68.40;;;;;;5032790;28;20198;-59
2023/12/18 08:38:32;;;;;;;0.70;0.67;;;10.90;65.50;;;;;;5032493;28;20472;-59
2023/12/18 08:40:57;;;;;;;0.97;0.97;;;10.90;67.90;;;;;;5032489;28;20453;-59
2023/12/18 08:43:23;;;;;;;1.90;1.47;;;11.10;67.30;;;;;;5032332;28;20226;-59
2023/12/18 08:45:49;;;;;;;0.80;0.80;;;11.40;66.60;;;;;;5032469;28;20171;-59
2023/12/18 08:48:15;;;;;;;0.67;0.67;;;11.90;64.90;;;;;;5053851;28;20241;-59
2023/12/18 08:50:41;;;;;;;1.47;0.73;;;12.60;63.90;;;;;;5051617;28;20204;-59
2023/12/18 08:53:07;;;;;;;0.70;0.70;;;13.00;62.30;;;;;;5052236;28;20415;-59
2023/12/18 08:55:38;;;;;;;0.73;0.73;;;13.30;62.70;;;;;;5051408;28;20436;-59
2023/12/18 08:58:07;;;;;;;2.73;1.20;;;13.50;62.60;;;;;;5051817;28;20202;-59
2023/12/18 09:00:33;;;;;;;2.50;1.13;;;13.80;61.70;;;;;;5051899;28;20898;-59
2023/12/18 09:02:58;;;;;;;2.30;1.00;;;14.30;61.10;;;;;;5051260;28;20523;-59
2023/12/18 09:05:24;;;;;;;0.60;0.60;;;14.70;59.20;;;;;;5052082;28;20178;-59
2023/12/18 09:07:50;;;;;;;1.33;1.20;;;15.20;57.60;;;;;;5052025;28;20459;-59
2023/12/18 09:10:17;;;;;;;0.90;0.80;;;15.50;56.20;;;;;;5051695;28;20200;-59
2023/12/18 09:12:44;;;;;;;1.13;1.03;;;15.60;55.10;;;;;;5051594;28;20669;-60
2023/12/18 09:15:10;;;;;;;1.60;1.33;;;15.90;54.30;;;;;;5052033;28;20425;-60
2023/12/18 09:17:36;;;;;;;2.67;2.47;;;16.40;53.00;;;;;;5052058;28;20459;-60
2023/12/18 09:20:02;;;;;;;0.87;0.73;;;17.10;52.40;;;;;;5051706;28;20450;-60
2023/12/18 09:22:28;;;;;;;2.40;2.03;;;17.70;51.40;;;;;;5051535;28;20174;-60
2023/12/18 09:24:54;;;;;;;2.10;1.80;;;18.20;50.20;;;;;;5051759;28;20783;-60
2023/12/18 09:27:19;;;;;;;2.90;1.77;;;18.60;48.30;;;;;;5051697;28;20227;-60
2023/12/18 09:29:45;;;;;;;1.90;1.70;;;19.00;48.10;;;;;;5051562;28;20194;-60
2023/12/18 09:32:11;;;;;;;2.30;1.40;;;19.40;46.80;;;;;;5051538;28;20255;-60
2023/12/18 09:34:37;;;;;;;2.00;1.50;;;19.70;44.60;;;;;;5057233;28;20419;-60
2023/12/18 09:37:03;;;;;;;2.43;2.03;;;20.00;44.00;;;;;;5071653;28;20166;-60
2023/12/18 09:42:04;;;;;;;2.93;2.70;;;20.60;45.00;;;;;;5030816;28;20458;-62
2023/12/18 09:44:31;;;;;;;1.20;1.10;;;21.10;43.00;;;;;;5035983;28;20504;-62
2023/12/18 09:47:00;;;;;;;2.97;1.60;;;21.60;43.00;;;;;;5035855;28;20399;-61
2023/12/18 09:49:26;;;;;;;1.20;1.03;;;22.20;42.00;;;;;;5035696;28;20394;-62
2023/12/18 09:52:01;;;;;;;1.40;1.00;;;22.70;41.30;;;;;;5035339;28;20432;-62
2023/12/18 09:54:28;;;;;;;2.27;2.13;;;23.20;40.90;;;;;;5035543;28;20807;-62
2023/12/18 09:56:56;;;;;;;1.37;1.13;;;23.50;39.70;;;;;;5035716;28;20484;-62
2023/12/18 09:59:22;;;;;;;3.70;2.90;;;23.80;38.70;;;;;;5035526;28;20456;-63
2023/12/18 10:01:48;;;;;;;2.83;2.37;;;23.70;37.70;;;;;;5035145;28;20780;-63
2023/12/18 10:04:14;;;;;;;0.70;0.70;;;23.40;38.80;;;;;;5035455;28;20580;-63
2023/12/18 10:06:40;;;;;;;4.93;2.40;;;23.10;38.90;;;;;;5035380;28;20436;-62
2023/12/18 10:09:13;;;;;;;0.80;0.80;;;22.70;39.20;;;;;;5035238;28;20225;-62
2023/12/18 10:11:41;;;;;;;4.10;1.70;;;22.30;39.70;;;;;;5035120;28;20498;-63
2023/12/18 10:14:07;;;;;;;1.17;0.80;;;22.10;40.00;;;;;;5035207;28;20416;-63
2023/12/18 10:16:33;;;;;;;1.10;1.00;;;22.20;40.20;;;;;;5035232;28;20402;-62
2023/12/18 10:18:58;;;;;;;1.37;1.27;;;22.50;38.70;;;;;;5035096;28;20202;-62
2023/12/18 10:21:25;;;;;;;0.73;0.50;;;22.70;39.40;;;;;;5034486;28;20192;-63
2023/12/18 10:23:54;;;;;;;1.30;1.20;;;22.90;38.50;;;;;;5035071;28;20538;-62
2023/12/18 10:26:20;;;;;;;1.07;0.97;;;23.00;38.20;;;;;;5034991;28;20417;-62
2023/12/18 10:28:50;;;;;;;1.00;0.93;;;23.00;37.70;;;;;;5034965;28;20419;-62
2023/12/18 10:31:15;;;;;;;0.80;0.60;;;22.90;38.30;;;;;;5034518;28;20440;-62
2023/12/18 10:33:42;;;;;;;1.30;0.90;;;22.70;37.30;;;;;;5034882;28;20421;-62
2023/12/18 10:36:09;;;;;;;0.93;0.67;;;22.50;38.10;;;;;;5034732;28;20167;-62
2023/12/18 10:38:38;;;;;;;0.50;0.50;;;22.30;38.50;;;;;;5035059;28;20869;-62
2023/12/18 10:41:04;;;;;;;0.50;0.50;;;21.80;37.00;;;;;;5034333;28;20452;-63
2023/12/18 10:43:35;;;;;;;0.60;0.60;;;21.30;38.80;;;;;;5034738;28;20384;-62
2023/12/18 10:46:02;;;;;;;0.53;0.50;;;20.90;38.70;;;;;;5034713;28;20402;-62
2023/12/18 10:48:29;;;;;;;0.60;0.40;;;20.70;38.10;;;;;;5034562;28;20405;-62
2023/12/18 10:50:56;;;;;;;1.13;1.03;;;20.30;37.20;;;;;;5033824;28;20524;-63
2023/12/18 10:53:24;;;;;;;1.37;0.80;;;19.80;40.00;;;;;;5034439;28;20458;-62
2023/12/18 10:55:50;;;;;;;0.87;0.80;;;19.40;40.40;;;;;;5034585;28;20423;-62
2023/12/18 10:58:20;;;;;;;0.30;0.30;;;18.90;40.20;;;;;;5034377;28;20430;-62
2023/12/18 11:00:46;;;;;;;0.50;0.50;;;18.40;40.00;;;;;;5034056;28;20429;-62
2023/12/18 11:03:14;;;;;;;0.60;0.60;;;17.80;40.20;;;;;;5034239;28;20420;-62
2023/12/18 11:05:41;;;;;;;0.60;0.60;;;17.30;41.30;;;;;;5034179;28;20912;-62
2023/12/18 11:08:07;;;;;;;0.83;0.50;;;16.70;39.20;;;;;;5034103;28;20403;-62
2023/12/18 11:10:33;;;;;;;0.30;0.30;;;16.10;40.90;;;;;;5033958;28;20431;-62
2023/12/18 11:13:27;;;;;;;0.57;0.53;;;15.50;42.90;;;;;;5034125;28;20408;-62
2023/12/18 11:16:06;;;;;;;0.40;0.40;;;14.80;43.50;;;;;;5034338;28;20809;-62
2023/12/18 11:18:38;;;;;;;0.40;0.40;;;14.40;44.20;;;;;;5033925;28;20460;-62
2023/12/18 11:21:03;;;;;;;0.40;0.40;;;14.10;44.10;;;;;;5033564;28;20897;-62
2023/12/18 11:23:39;;;;;;;0.60;0.50;;;13.80;43.90;;;;;;5033835;28;20500;-62
2023/12/18 11:26:05;;;;;;;0.50;0.50;;;13.60;45.30;;;;;;5033859;28;20166;-61
2023/12/18 11:28:31;;;;;;;0.40;0.40;;;13.40;45.10;;;;;;5034047;28;20465;-61
2023/12/18 11:31:05;;;;;;;0.40;0.40;;;13.20;42.80;;;;;;5033660;28;20436;-62
2023/12/18 11:33:31;;;;;;;2.00;0.67;;;13.10;41.70;;;;;;5033747;28;20208;-62
2023/12/18 11:35:57;;;;;;;0.40;0.40;;;12.90;40.30;;;;;;5033682;28;20445;-61
2023/12/18 11:38:24;;;;;;;2.50;0.87;;;12.80;41.20;;;;;;5033579;28;20507;-62
2023/12/18 11:40:53;;;;;;;0.53;0.53;;;12.50;42.20;;;;;;5033064;28;20590;-61
2023/12/18 11:43:37;;;;;;;0.40;0.40;;;12.10;42.00;;;;;;5033762;28;20401;-62
2023/12/18 11:46:06;;;;;;;1.03;0.50;;;11.80;42.30;;;;;;5033653;28;20439;-62
2023/12/18 11:48:33;;;;;;;0.40;0.40;;;11.50;40.60;;;;;;5033534;28;20406;-62
2023/12/18 11:51:01;;;;;;;0.63;0.50;;;11.30;40.80;;;;;;5032905;28;20440;-62
2023/12/18 11:53:27;;;;;;;0.40;0.40;;;11.10;41.30;;;;;;5033608;28;20690;-62
2023/12/18 11:55:53;;;;;;;0.43;0.43;;;10.90;41.80;;;;;;5033377;28;20409;-62
2023/12/18 11:58:26;;;;;;;1.77;0.50;;;10.80;43.30;;;;;;5033206;28;20552;-61
2023/12/18 12:00:52;;;;;;;0.40;0.40;;;10.50;41.10;;;;;;5032844;28;20543;-62
2023/12/18 12:03:19;;;;;;;0.40;0.40;;;10.40;42.00;;;;;;5032416;28;20246;-62
2023/12/18 12:05:48;;;;;;;0.50;0.50;;;10.30;41.50;;;;;;5033016;28;20270;-61
2023/12/18 12:08:15;;;;;;;0.32;0.32;;;10.30;42.50;;;;;;5033116;28;20775;-61
2023/12/18 12:10:45;;;;;;;0.30;0.30;;;10.20;41.80;;;;;;5032699;28;20194;-62
2023/12/18 12:13:20;;;;;;;0.50;0.50;;;10.20;41.10;;;;;;5033007;28;20174;-61
2023/12/18 12:15:56;;;;;;;0.43;0.43;;;10.10;40.80;;;;;;5032945;28;20224;-61
2023/12/18 12:18:23;;;;;;;0.40;0.40;;;10.00;41.60;;;;;;5032761;28;20305;-61
2023/12/18 12:20:48;;;;;;;0.85;0.60;;;9.90;40.40;;;;;;5032480;28;20241;-62
2023/12/18 12:23:14;;;;;;;1.27;1.13;;;9.80;42.10;;;;;;5032827;28;20633;-61
2023/12/18 12:25:40;;;;;;;0.43;0.43;;;9.80;42.10;;;;;;5032890;28;20648;-61
2023/12/18 12:28:06;;;;;;;0.50;0.40;;;9.70;43.60;;;;;;5032724;28;20553;-61
2023/12/18 12:30:32;;;;;;;0.40;0.40;;;9.60;42.50;;;;;;5032406;28;20206;-62
2023/12/18 12:32:58;;;;;;;0.30;0.30;;;9.60;42.40;;;;;;5032392;28;20413;-61
2023/12/18 12:35:25;;;;;;;0.37;0.37;;;9.60;43.40;;;;;;5032560;28;20171;-61
2023/12/18 12:37:51;;;;;;;0.30;0.30;;;9.50;41.80;;;;;;5032570;28;20281;-61
2023/12/18 12:40:16;;;;;;;0.30;0.30;;;9.50;41.80;;;;;;5038374;28;20297;-61
2023/12/18 12:42:43;;;;;;;0.50;0.50;;;9.40;41.30;;;;;;5052123;28;20428;-61
2023/12/18 12:45:11;;;;;;;0.93;0.50;;;9.40;40.70;;;;;;5061231;28;20193;-61
2023/12/18 12:47:41;;;;;;;0.50;0.40;;;9.40;41.60;;;;;;5091355;28;20258;-60
2023/12/18 12:50:08;;;;;;;0.30;0.30;;;9.40;41.20;;;;;;5091386;28;20220;-61
2023/12/18 12:52:37;;;;;;;0.43;0.43;;;9.30;43.60;;;;;;5047938;28;20206;-60